createdAt,value
2022-09-11T00:02:06.825Z,100683.22
2022-09-11T00:04:33.345Z,100686.69
2022-09-11T00:07:00.026Z,100688.25
2022-09-11T00:09:26.825Z,100684.38
2022-09-11T00:11:53.448Z,100678.34
2022-09-11T00:14:20.105Z,100686.69
2022-09-11T00:16:47.166Z,100695.31
2022-09-11T00:19:18.922Z,100696.53
2022-09-11T00:21:46.162Z,100692.03
2022-09-11T00:24:12.814Z,100688.63
2022-09-11T00:26:41.094Z,100701.22
2022-09-11T00:29:08.081Z,100695.03
2022-09-11T00:31:34.855Z,100690.84
2022-09-11T00:34:01.400Z,100688.91
2022-09-11T00:36:31.529Z,100690.28
2022-09-11T00:38:59.907Z,100695.69
2022-09-11T00:41:39.351Z,100693.38
2022-09-11T00:44:27.200Z,100697.41
2022-09-11T00:46:56.754Z,100694.03
2022-09-11T00:49:30.514Z,100688.19
2022-09-11T00:52:08.534Z,100696.56
2022-09-11T00:54:41.452Z,100694.50
2022-09-11T00:57:09.495Z,100696.56
2022-09-11T00:59:40.059Z,100693.00
2022-09-11T01:02:12.167Z,100701.69
2022-09-11T01:04:38.618Z,100699.00
2022-09-11T01:07:33.964Z,100700.19
2022-09-11T01:10:00.520Z,100700.28
2022-09-11T01:12:57.826Z,100699.91
2022-09-11T01:15:35.668Z,100698.25
2022-09-11T01:18:14.991Z,100690.97
2022-09-11T01:21:32.482Z,100691.09
2022-09-11T01:24:23.810Z,100702.91
2022-09-11T01:26:50.168Z,100700.41
2022-09-11T01:29:22.723Z,100695.84
2022-09-11T01:32:16.433Z,100697.25
2022-09-11T01:34:57.842Z,100698.91
2022-09-11T01:37:38.903Z,100703.84
2022-09-11T01:40:16.547Z,100693.25
2022-09-11T01:42:46.035Z,100703.22
2022-09-11T01:45:17.080Z,100700.13
2022-09-11T01:47:46.391Z,100701.72
2022-09-11T01:50:15.414Z,100703.97
2022-09-11T01:52:51.583Z,100709.00
2022-09-11T01:55:22.694Z,100701.19
2022-09-11T01:57:58.725Z,100705.56
2022-09-11T02:00:25.299Z,100710.19
2022-09-11T02:02:59.464Z,100715.97
2022-09-11T02:05:56.561Z,100700.97
2022-09-11T02:08:52.922Z,100705.91
2022-09-11T02:11:20.614Z,100709.66
2022-09-11T02:14:06.825Z,100712.22
2022-09-11T02:16:59.388Z,100709.06
2022-09-11T02:19:29.507Z,100711.31
2022-09-11T02:21:58.462Z,100710.19
2022-09-11T02:24:26.235Z,100709.19
2022-09-11T02:27:01.089Z,100719.13
2022-09-11T02:29:27.756Z,100708.72
2022-09-11T02:31:54.554Z,100712.41
2022-09-11T02:34:32.684Z,100708.06
2022-09-11T02:37:26.599Z,100716.34
2022-09-11T02:40:12.759Z,100716.06
2022-09-11T02:42:45.492Z,100716.25
2022-09-11T02:45:28.656Z,100712.72
2022-09-11T02:48:15.806Z,100718.75
2022-09-11T02:50:48.136Z,100716.88
2022-09-11T02:53:26.694Z,100724.97
2022-09-11T02:56:04.705Z,100725.09
2022-09-11T02:58:34.694Z,100737.00
2022-09-11T03:01:02.662Z,100730.19
2022-09-11T03:03:37.424Z,100727.38
2022-09-11T03:06:04.375Z,100725.19
2022-09-11T03:08:32.228Z,100730.75
2022-09-11T03:10:58.782Z,100734.94
2022-09-11T03:13:25.193Z,100732.78
2022-09-11T03:15:51.988Z,100735.00
2022-09-11T03:18:18.448Z,100736.41
2022-09-11T03:20:49.767Z,100744.97
2022-09-11T03:23:16.226Z,100745.88
2022-09-11T03:25:42.705Z,100746.25
2022-09-11T03:28:09.250Z,100749.63
2022-09-11T03:30:35.906Z,100760.50
2022-09-11T03:33:02.645Z,100756.69
2022-09-11T03:35:29.286Z,100760.22
2022-09-11T03:37:55.755Z,100759.69
2022-09-11T03:40:22.256Z,100763.13
2022-09-11T03:42:48.795Z,100762.66
2022-09-11T03:45:16.379Z,100771.31
2022-09-11T03:47:42.836Z,100774.47
2022-09-11T03:50:10.269Z,100786.91
2022-09-11T03:52:36.978Z,100778.66
2022-09-11T03:55:07.123Z,100776.47
2022-09-11T03:57:34.470Z,100785.75
2022-09-11T04:00:03.871Z,100784.56
2022-09-11T04:02:30.356Z,100794.84
2022-09-11T04:04:56.773Z,100800.31
2022-09-11T04:07:23.744Z,100794.06
2022-09-11T04:09:50.171Z,100794.91
2022-09-11T04:12:16.717Z,100802.25
2022-09-11T04:14:43.159Z,100800.16
2022-09-11T04:17:09.796Z,100804.03
2022-09-11T04:19:36.256Z,100803.16
2022-09-11T04:22:03.957Z,100803.84
2022-09-11T04:24:30.410Z,100803.63
2022-09-11T04:27:00.589Z,100809.50
2022-09-11T04:29:28.510Z,100807.03
2022-09-11T04:31:56.142Z,100813.22
2022-09-11T04:34:22.617Z,100803.94
2022-09-11T04:36:49.031Z,100811.91
2022-09-11T04:39:16.079Z,100814.41
2022-09-11T04:41:44.168Z,100819.81
2022-09-11T04:44:10.637Z,100813.88
2022-09-11T04:46:37.090Z,100818.50
2022-09-11T04:49:03.518Z,100816.47
2022-09-11T04:51:32.728Z,100817.59
2022-09-11T04:54:00.526Z,100814.19
2022-09-11T04:56:29.548Z,100826.66
2022-09-11T04:58:58.965Z,100824.78
2022-09-11T05:01:27.387Z,100811.50
2022-09-11T05:03:53.922Z,100820.47
2022-09-11T05:06:20.460Z,100807.19
2022-09-11T05:08:47.242Z,100805.22
2022-09-11T05:11:16.361Z,100820.59
2022-09-11T05:13:43.555Z,100818.56
2022-09-11T05:16:12.269Z,100822.38
2022-09-11T05:18:40.352Z,100828.44
2022-09-11T05:21:16.663Z,100825.53
2022-09-11T05:23:47.895Z,100817.44
2022-09-11T05:26:16.771Z,100827.06
2022-09-11T05:28:43.257Z,100824.91
2022-09-11T05:31:18.031Z,100830.09
2022-09-11T05:33:45.376Z,100831.03
2022-09-11T05:36:13.296Z,100838.31
2022-09-11T05:38:40.519Z,100842.75
2022-09-11T05:41:09.389Z,100837.81
2022-09-11T05:43:36.201Z,100849.63
2022-09-11T05:46:03.296Z,100857.25
2022-09-11T05:48:31.307Z,100858.84
2022-09-11T05:51:02.777Z,100860.97
2022-09-11T05:53:33.770Z,100868.59
2022-09-11T05:56:14.177Z,100875.50
2022-09-11T05:58:40.597Z,100878.72
2022-09-11T06:01:10.165Z,100882.19
2022-09-11T06:03:38.706Z,100901.66
2022-09-11T06:06:08.332Z,100891.78
2022-09-11T06:08:35.867Z,100901.53
2022-09-11T06:11:06.607Z,100905.66
2022-09-11T06:13:36.447Z,100901.09
2022-09-11T06:16:03.145Z,100901.81
2022-09-11T06:18:29.734Z,100902.59
2022-09-11T06:21:02.775Z,100909.56
2022-09-11T06:23:29.418Z,100909.31
2022-09-11T06:26:03.399Z,100912.84
2022-09-11T06:28:29.828Z,100920.00
2022-09-11T06:30:56.353Z,100920.50
2022-09-11T06:33:22.789Z,100924.13
2022-09-11T06:35:59.472Z,100921.34
2022-09-11T06:38:26.999Z,100922.72
2022-09-11T06:40:54.237Z,100920.81
2022-09-11T06:43:21.135Z,100925.50
2022-09-11T06:45:48.359Z,100928.84
2022-09-11T06:48:21.495Z,100922.78
2022-09-11T06:50:47.898Z,100926.69
2022-09-11T06:53:15.191Z,100930.50
2022-09-11T06:55:41.606Z,100932.31
2022-09-11T06:58:08.728Z,100931.84
2022-09-11T07:00:36.619Z,100941.06
2022-09-11T07:03:04.417Z,100937.50
2022-09-11T07:05:31.049Z,100928.06
2022-09-11T07:07:57.871Z,100935.22
2022-09-11T07:10:24.647Z,100936.88
2022-09-11T07:12:54.671Z,100941.94
2022-09-11T07:15:21.697Z,100937.81
2022-09-11T07:17:48.747Z,100938.50
2022-09-11T07:20:17.085Z,100944.84
2022-09-11T07:22:45.488Z,100946.81
2022-09-11T07:25:12.037Z,100945.06
2022-09-11T07:27:38.477Z,100938.81
2022-09-11T07:30:05.458Z,100943.28
2022-09-11T07:32:31.883Z,100936.94
2022-09-11T07:34:58.475Z,100942.44
2022-09-11T07:37:24.941Z,100946.66
2022-09-11T07:39:51.481Z,100949.72
2022-09-11T07:42:17.943Z,100947.75
2022-09-11T07:44:45.108Z,100950.59
2022-09-11T07:47:11.667Z,100946.00
2022-09-11T07:49:38.097Z,100958.59
2022-09-11T07:52:04.719Z,100941.78
2022-09-11T07:54:31.212Z,100952.28
2022-09-11T07:56:58.075Z,100952.56
2022-09-11T07:59:24.825Z,100949.88
2022-09-11T08:01:51.333Z,100955.06
2022-09-11T08:04:17.812Z,100955.56
2022-09-11T08:06:44.689Z,100949.34
2022-09-11T08:09:15.059Z,100957.75
2022-09-11T08:11:48.485Z,100958.34
2022-09-11T08:14:17.575Z,100965.47
2022-09-11T08:16:44.860Z,100968.13
2022-09-11T08:19:18.189Z,100973.00
2022-09-11T08:21:44.980Z,100971.63
2022-09-11T08:24:17.069Z,100974.50
2022-09-11T08:26:48.628Z,100983.63
2022-09-11T08:29:15.572Z,100980.84
2022-09-11T08:31:42.052Z,100980.41
2022-09-11T08:34:10.256Z,100985.50
2022-09-11T08:36:36.973Z,100986.78
2022-09-11T08:39:04.018Z,100985.47
2022-09-11T08:41:30.442Z,100991.63
2022-09-11T08:44:02.874Z,100994.31
2022-09-11T08:46:36.531Z,100997.00
2022-09-11T08:49:19.242Z,100993.38
2022-09-11T08:51:48.864Z,101000.78
2022-09-11T08:54:33.448Z,100992.69
2022-09-11T08:57:16.699Z,100994.03
2022-09-11T09:00:02.582Z,100997.66
2022-09-11T09:02:31.695Z,100998.63
2022-09-11T09:05:00.966Z,100994.03
2022-09-11T09:07:48.618Z,101001.16
2022-09-11T09:10:35.310Z,100996.78
2022-09-11T09:13:49.399Z,101003.47
2022-09-11T09:16:43.968Z,101000.66
2022-09-11T09:19:15.697Z,101004.22
2022-09-11T09:21:45.245Z,101011.44
2022-09-11T09:24:19.820Z,101012.84
2022-09-11T09:26:52.677Z,101009.28
2022-09-11T09:29:22.874Z,101014.34
2022-09-11T09:32:05.633Z,101010.59
2022-09-11T09:34:37.408Z,101015.78
2022-09-11T09:37:17.932Z,101015.59
2022-09-11T09:39:45.628Z,101013.03
2022-09-11T09:42:36.816Z,101007.81
2022-09-11T09:45:27.509Z,101005.63
2022-09-11T09:47:53.994Z,101006.38
2022-09-11T09:50:28.366Z,101007.75
2022-09-11T09:53:11.448Z,101014.97
2022-09-11T09:55:41.259Z,101003.50
2022-09-11T09:58:07.706Z,101017.34
2022-09-11T10:00:37.623Z,101007.53
2022-09-11T10:03:19.673Z,101011.75
2022-09-11T10:05:48.283Z,101014.03
2022-09-11T10:08:33.686Z,101025.28
2022-09-11T10:11:03.689Z,101024.09
2022-09-11T10:13:36.913Z,101030.53
2022-09-11T10:16:05.234Z,101031.25
2022-09-11T10:18:36.045Z,101031.22
2022-09-11T10:21:11.374Z,101021.88
2022-09-11T10:23:50.246Z,101026.75
2022-09-11T10:26:45.799Z,101015.69
2022-09-11T10:29:17.913Z,101020.69
2022-09-11T10:31:55.952Z,101014.63
2022-09-11T10:34:25.311Z,101031.38
2022-09-11T10:36:57.063Z,101015.94
2022-09-11T10:39:26.227Z,101020.66
2022-09-11T10:41:58.918Z,101020.88
2022-09-11T10:44:27.399Z,101025.06
2022-09-11T10:47:15.361Z,101032.19
2022-09-11T10:49:42.429Z,101026.81
2022-09-11T10:52:08.783Z,101032.25
2022-09-11T10:54:41.309Z,101040.75
2022-09-11T10:57:22.883Z,101032.25
2022-09-11T11:00:16.535Z,101036.59
2022-09-11T11:02:48.845Z,101039.50
2022-09-11T11:05:37.302Z,101042.88
2022-09-11T11:08:15.837Z,101037.63
2022-09-11T11:11:03.727Z,101038.75
2022-09-11T11:14:05.957Z,101040.16
2022-09-11T11:16:41.772Z,101046.06
2022-09-11T11:19:35.423Z,101034.25
2022-09-11T11:22:24.826Z,101045.19
2022-09-11T11:25:02.519Z,101033.81
2022-09-11T11:27:31.645Z,101037.97
2022-09-11T11:30:03.778Z,101041.84
2022-09-11T11:32:59.362Z,101044.38
2022-09-11T11:35:41.465Z,101045.03
2022-09-11T11:38:34.344Z,101041.19
2022-09-11T11:41:09.765Z,101043.66
2022-09-11T11:43:40.836Z,101040.94
2022-09-11T11:46:30.077Z,101036.94
2022-09-11T11:48:59.711Z,101040.59
2022-09-11T11:51:29.567Z,101039.75
2022-09-11T11:54:20.346Z,101041.00
2022-09-11T11:56:52.198Z,101038.94
2022-09-11T11:59:52.076Z,101033.06
2022-09-11T12:02:27.787Z,101052.59
2022-09-11T12:05:02.903Z,101043.03
2022-09-11T12:07:32.520Z,101050.13
2022-09-11T12:10:01.474Z,101049.69
2022-09-11T12:12:32.334Z,101044.47
2022-09-11T12:15:08.539Z,101043.69
2022-09-11T12:17:38.266Z,101043.50
2022-09-11T12:20:10.652Z,101052.97
2022-09-11T12:22:45.056Z,101048.00
2022-09-11T12:25:32.026Z,101049.97
2022-09-11T12:28:24.184Z,101046.28
2022-09-11T12:31:05.425Z,101044.81
2022-09-11T12:33:40.850Z,101044.47
2022-09-11T12:36:44.271Z,101050.59
2022-09-11T12:39:39.474Z,101045.50
2022-09-11T12:42:28.346Z,101056.91
2022-09-11T12:44:55.049Z,101053.56
2022-09-11T12:47:24.206Z,101056.69
2022-09-11T12:50:07.370Z,101059.22
2022-09-11T12:52:40.200Z,101053.97
2022-09-11T12:55:35.478Z,101052.25
2022-09-11T12:58:06.673Z,101059.22
2022-09-11T13:00:39.066Z,101060.03
2022-09-11T13:03:15.211Z,101060.47
2022-09-11T13:05:43.190Z,101054.44
2022-09-11T13:08:21.213Z,101044.38
2022-09-11T13:10:47.968Z,101056.66
2022-09-11T13:13:43.918Z,101051.72
2022-09-11T13:16:28.905Z,101048.56
2022-09-11T13:19:13.364Z,101045.22
2022-09-11T13:21:41.878Z,101042.31
2022-09-11T13:24:40.665Z,101038.94
2022-09-11T13:27:15.387Z,101034.75
2022-09-11T13:29:43.469Z,101033.50
2022-09-11T13:32:14.395Z,101032.66
2022-09-11T13:34:46.293Z,101023.81
2022-09-11T13:37:16.285Z,101026.56
2022-09-11T13:39:44.785Z,101028.06
2022-09-11T13:42:16.218Z,101030.75
2022-09-11T13:44:49.147Z,101034.09
2022-09-11T13:47:20.179Z,101034.28
2022-09-11T13:49:48.888Z,101042.25
2022-09-11T13:52:16.227Z,101041.19
2022-09-11T13:54:49.162Z,101045.38
2022-09-11T13:57:23.877Z,101050.22
2022-09-11T14:00:02.210Z,101043.69
2022-09-11T14:02:34.766Z,101040.59
2022-09-11T14:05:13.763Z,101034.09
2022-09-11T14:08:02.159Z,101039.50
2022-09-11T14:10:33.202Z,101049.00
2022-09-11T14:13:23.102Z,101034.56
2022-09-11T14:15:49.501Z,101033.91
2022-09-11T14:18:41.901Z,101041.88
2022-09-11T14:21:39.185Z,101035.38
2022-09-11T14:24:26.537Z,101037.84
2022-09-11T14:26:53.946Z,101041.44
2022-09-11T14:29:29.396Z,101041.22
2022-09-11T14:32:21.653Z,101034.50
2022-09-11T14:34:48.270Z,101035.97
2022-09-11T14:37:16.671Z,101035.59
2022-09-11T14:39:46.760Z,101033.69
2022-09-11T14:42:21.136Z,101034.34
2022-09-11T14:44:47.767Z,101033.50
2022-09-11T14:47:22.894Z,101037.69
2022-09-11T14:49:51.650Z,101040.00
2022-09-11T14:52:20.603Z,101036.44
2022-09-11T14:54:48.079Z,101044.59
2022-09-11T14:57:21.088Z,101048.13
2022-09-11T14:59:47.906Z,101051.72
2022-09-11T15:02:17.232Z,101045.22
2022-09-11T15:04:43.826Z,101050.47
2022-09-11T15:07:12.514Z,101045.84
2022-09-11T15:09:39.676Z,101041.44
2022-09-11T15:12:08.444Z,101036.84
2022-09-11T15:14:54.794Z,101041.16
2022-09-11T15:17:21.476Z,101037.91
2022-09-11T15:19:49.831Z,101045.63
2022-09-11T15:22:16.467Z,101053.91
2022-09-11T15:24:43.197Z,101044.75
2022-09-11T15:27:10.254Z,101049.78
2022-09-11T15:29:38.561Z,101050.38
2022-09-11T15:32:06.203Z,101047.31
2022-09-11T15:34:33.152Z,101041.38
2022-09-11T15:37:00.279Z,101046.81
2022-09-11T15:39:27.876Z,101045.19
2022-09-11T15:41:55.687Z,101040.50
2022-09-11T15:44:25.165Z,101046.84
2022-09-11T15:46:53.404Z,101047.03
2022-09-11T15:49:22.139Z,101045.75
2022-09-11T15:51:49.870Z,101046.59
2022-09-11T15:54:16.348Z,101054.28
2022-09-11T15:56:43.745Z,101048.63
2022-09-11T15:59:15.236Z,101057.19
2022-09-11T16:01:43.360Z,101051.78
2022-09-11T16:04:12.675Z,101046.69
2022-09-11T16:06:42.354Z,101053.34
2022-09-11T16:09:13.013Z,101048.19
2022-09-11T16:11:40.966Z,101040.44
2022-09-11T16:14:08.791Z,101035.22
2022-09-11T16:16:35.510Z,101041.31
2022-09-11T16:19:01.975Z,101039.59
2022-09-11T16:21:28.938Z,101044.84
2022-09-11T16:24:00.634Z,101045.03
2022-09-11T16:26:29.001Z,101042.94
2022-09-11T16:28:55.477Z,101043.34
2022-09-11T16:31:21.988Z,101039.13
2022-09-11T16:33:49.364Z,101043.25
2022-09-11T16:36:18.379Z,101044.06
2022-09-11T16:38:45.552Z,101042.00
2022-09-11T16:41:18.797Z,101049.69
2022-09-11T16:43:50.250Z,101043.22
2022-09-11T16:46:19.643Z,101042.19
2022-09-11T16:48:50.469Z,101042.41
2022-09-11T16:51:20.779Z,101038.44
2022-09-11T16:53:47.641Z,101032.31
2022-09-11T16:56:16.810Z,101027.97
2022-09-11T16:58:44.033Z,101038.38
2022-09-11T17:01:14.786Z,101036.69
2022-09-11T17:03:43.500Z,101043.22
2022-09-11T17:06:11.443Z,101049.22
2022-09-11T17:08:39.169Z,101051.75
2022-09-11T17:11:09.456Z,101046.63
2022-09-11T17:13:36.856Z,101043.41
2022-09-11T17:16:12.655Z,101045.47
2022-09-11T17:18:47.289Z,101043.41
2022-09-11T17:21:14.147Z,101054.47
2022-09-11T17:23:40.759Z,101046.94
2022-09-11T17:26:12.695Z,101045.91
2022-09-11T17:28:40.291Z,101054.84
2022-09-11T17:31:09.121Z,101047.88
2022-09-11T17:33:38.120Z,101062.38
2022-09-11T17:36:06.406Z,101058.00
2022-09-11T17:38:33.843Z,101062.59
2022-09-11T17:41:03.840Z,101064.66
2022-09-11T17:43:30.909Z,101069.25
2022-09-11T17:46:02.362Z,101054.16
2022-09-11T17:48:28.935Z,101057.91
2022-09-11T17:51:13.419Z,101061.22
2022-09-11T17:53:42.320Z,101058.38
2022-09-11T17:56:16.513Z,101063.09
2022-09-11T17:58:44.912Z,101062.63
2022-09-11T18:01:16.586Z,101069.69
2022-09-11T18:03:44.264Z,101070.47
2022-09-11T18:06:32.572Z,101068.13
2022-09-11T18:09:01.817Z,101066.84
2022-09-11T18:11:29.587Z,101070.81
2022-09-11T18:13:56.280Z,101061.09
2022-09-11T18:16:22.872Z,101060.19
2022-09-11T18:18:49.614Z,101060.91
2022-09-11T18:21:16.080Z,101063.34
2022-09-11T18:23:45.605Z,101057.16
2022-09-11T18:26:40.038Z,101067.25
2022-09-11T18:29:10.482Z,101069.13
2022-09-11T18:31:40.028Z,101066.63
2022-09-11T18:34:07.280Z,101075.97
2022-09-11T18:36:33.766Z,101082.78
2022-09-11T18:39:02.034Z,101077.47
2022-09-11T18:41:31.293Z,101089.53
2022-09-11T18:44:00.079Z,101096.03
2022-09-11T18:46:27.323Z,101092.69
2022-09-11T18:48:55.837Z,101092.22
2022-09-11T18:51:22.597Z,101092.59
2022-09-11T18:53:51.941Z,101091.19
2022-09-11T18:56:19.753Z,101083.44
2022-09-11T18:58:48.423Z,101090.72
2022-09-11T19:01:18.302Z,101096.72
2022-09-11T19:03:44.978Z,101101.31
2022-09-11T19:06:14.474Z,101100.06
2022-09-11T19:08:43.079Z,101108.09
2022-09-11T19:11:10.481Z,101105.75
2022-09-11T19:13:38.144Z,101102.78
2022-09-11T19:16:05.361Z,101105.72
2022-09-11T19:18:32.206Z,101110.81
2022-09-11T19:21:10.199Z,101109.88
2022-09-11T19:23:39.107Z,101113.72
2022-09-11T19:26:12.920Z,101115.09
2022-09-11T19:28:43.639Z,101117.56
2022-09-11T19:31:13.954Z,101122.59
2022-09-11T19:33:41.848Z,101124.63
2022-09-11T19:36:11.801Z,101124.84
2022-09-11T19:38:43.085Z,101125.94
2022-09-11T19:41:12.842Z,101128.84
2022-09-11T19:43:40.914Z,101128.38
2022-09-11T19:46:12.950Z,101127.91
2022-09-11T19:48:40.799Z,101132.66
2022-09-11T19:51:21.219Z,101132.66
2022-09-11T19:53:49.427Z,101140.75
2022-09-11T19:56:16.703Z,101140.84
2022-09-11T19:58:43.226Z,101133.28
2022-09-11T20:01:15.063Z,101145.44
2022-09-11T20:03:44.029Z,101142.41
2022-09-11T20:06:12.240Z,101133.63
2022-09-11T20:08:42.879Z,101146.31
2022-09-11T20:11:12.955Z,101132.50
2022-09-11T20:13:39.439Z,101136.38
2022-09-11T20:16:11.762Z,101137.31
2022-09-11T20:18:38.405Z,101141.66
2022-09-11T20:21:07.497Z,101146.81
2022-09-11T20:23:34.553Z,101141.81
2022-09-11T20:26:16.313Z,101148.50
2022-09-11T20:28:44.176Z,101149.56
2022-09-11T20:31:25.369Z,101143.41
2022-09-11T20:33:52.153Z,101148.00
2022-09-11T20:36:19.557Z,101152.34
2022-09-11T20:38:51.194Z,101152.59
2022-09-11T20:41:17.666Z,101149.03
2022-09-11T20:43:44.451Z,101146.19
2022-09-11T20:46:11.459Z,101143.03
2022-09-11T20:48:38.059Z,101151.50
2022-09-11T20:51:07.542Z,101141.22
2022-09-11T20:53:34.720Z,101147.47
2022-09-11T20:56:06.863Z,101150.38
2022-09-11T20:58:33.800Z,101148.31
2022-09-11T21:01:00.823Z,101151.50
2022-09-11T21:03:28.403Z,101157.13
2022-09-11T21:05:56.075Z,101153.22
2022-09-11T21:08:24.891Z,101141.47
2022-09-11T21:10:51.559Z,101152.94
2022-09-11T21:13:18.102Z,101151.44
2022-09-11T21:15:46.166Z,101147.91
2022-09-11T21:18:13.135Z,101149.56
2022-09-11T21:20:40.241Z,101156.69
2022-09-11T21:23:07.463Z,101151.66
2022-09-11T21:25:39.479Z,101150.63
2022-09-11T21:28:05.960Z,101152.00
2022-09-11T21:30:32.488Z,101153.72
2022-09-11T21:32:58.952Z,101157.41
2022-09-11T21:35:25.415Z,101155.72
2022-09-11T21:37:51.955Z,101161.44
2022-09-11T21:40:18.375Z,101150.59
2022-09-11T21:42:44.844Z,101154.31
2022-09-11T21:45:11.223Z,101151.06
2022-09-11T21:47:37.687Z,101147.19
2022-09-11T21:50:06.939Z,101143.53
2022-09-11T21:52:33.900Z,101151.00
2022-09-11T21:55:00.458Z,101152.19
2022-09-11T21:57:28.761Z,101147.66
2022-09-11T21:59:58.826Z,101148.16
2022-09-11T22:02:26.168Z,101141.41
2022-09-11T22:04:53.272Z,101148.84
2022-09-11T22:07:20.381Z,101149.88
2022-09-11T22:09:48.482Z,101152.75
2022-09-11T22:12:15.913Z,101145.00
2022-09-11T22:14:44.320Z,101154.41
2022-09-11T22:17:11.846Z,101148.03
2022-09-11T22:19:38.330Z,101146.81
2022-09-11T22:22:04.881Z,101147.47
2022-09-11T22:24:31.585Z,101150.84
2022-09-11T22:26:58.010Z,101153.56
2022-09-11T22:29:24.448Z,101158.09
2022-09-11T22:31:51.030Z,101153.72
2022-09-11T22:34:17.785Z,101147.00
2022-09-11T22:36:44.200Z,101150.53
2022-09-11T22:39:10.649Z,101150.03
2022-09-11T22:41:37.140Z,101151.56
2022-09-11T22:44:03.982Z,101154.25
2022-09-11T22:46:30.449Z,101150.66
2022-09-11T22:48:56.910Z,101152.03
2022-09-11T22:51:23.333Z,101154.03
2022-09-11T22:53:49.861Z,101156.38
2022-09-11T22:56:16.751Z,101150.59
2022-09-11T22:58:43.254Z,101142.88
2022-09-11T23:01:11.533Z,101147.59
2022-09-11T23:03:38.213Z,101142.38
2022-09-11T23:06:23.387Z,101148.16
2022-09-11T23:08:49.888Z,101144.22
2022-09-11T23:11:19.598Z,101149.16
2022-09-11T23:13:48.702Z,101142.38
2022-09-11T23:16:27.198Z,101142.38
2022-09-11T23:18:55.679Z,101141.22
2022-09-11T23:21:22.437Z,101145.19
2022-09-11T23:23:54.640Z,101141.22
2022-09-11T23:26:21.884Z,101143.59
2022-09-11T23:28:48.404Z,101140.06
2022-09-11T23:31:19.362Z,101142.66
2022-09-11T23:33:46.392Z,101142.16
2022-09-11T23:36:15.297Z,101133.78
2022-09-11T23:38:46.262Z,101137.84
2022-09-11T23:41:13.439Z,101146.28
2022-09-11T23:43:39.867Z,101140.91
2022-09-11T23:46:07.058Z,101140.41
2022-09-11T23:48:33.822Z,101145.66
2022-09-11T23:51:03.038Z,101142.66
2022-09-11T23:53:30.363Z,101138.28
2022-09-11T23:55:57.961Z,101139.47
2022-09-11T23:58:24.994Z,101135.25
